Time;durP1;ratioP1;P1;durP2;ratioP2;P2;SDS_P1;SDS_P2;PMS_P1;PMS_P2;Temp;Humidity;BMP_temperature;BMP_pressure;BME280_temperature;BME280_humidity;BME280_pressure;Samples;Min_cycle;Max_cycle;Signal;HPM_P1;HPM_P2
2024/04/05 00:01:58;;;;;;;24.30;3.08;;;12.80;99.90;;;;;;5070719;28;20021;-74
2024/04/05 00:04:24;;;;;;;26.80;3.47;;;12.80;99.90;;;;;;5064251;28;20518;-71
2024/04/05 00:06:49;;;;;;;15.52;2.90;;;12.80;99.90;;;;;;5065104;28;20067;-72
2024/04/05 00:09:15;;;;;;;20.90;3.00;;;12.80;99.90;;;;;;5069221;28;20094;-70
2024/04/05 00:11:41;;;;;;;21.63;3.28;;;12.80;99.90;;;;;;5072801;28;20056;-70
2024/04/05 00:14:06;;;;;;;23.90;3.15;;;12.80;99.90;;;;;;5073051;28;20028;-73
2024/04/05 00:16:32;;;;;;;27.52;3.20;;;12.70;99.90;;;;;;5064230;28;20028;-68
2024/04/05 00:18:57;;;;;;;18.27;3.42;;;12.70;99.90;;;;;;5068452;28;20032;-74
2024/04/05 00:21:23;;;;;;;25.23;4.43;;;12.70;99.90;;;;;;5066901;28;20056;-69
2024/04/05 00:23:51;;;;;;;20.42;2.92;;;12.70;99.90;;;;;;5065916;28;20417;-72
2024/04/05 00:26:17;;;;;;;18.35;3.00;;;12.70;99.90;;;;;;5067421;28;20030;-69
2024/04/05 00:28:42;;;;;;;28.20;2.88;;;12.60;99.90;;;;;;5064453;28;20028;-73
2024/04/05 00:31:11;;;;;;;15.35;3.47;;;12.60;99.90;;;;;;5070032;28;20032;-69
2024/04/05 00:33:37;;;;;;;24.50;3.70;;;12.60;99.90;;;;;;5070644;28;20072;-73
2024/04/05 00:36:03;;;;;;;19.98;3.17;;;12.50;99.90;;;;;;5068787;28;20496;-71
2024/04/05 00:38:29;;;;;;;19.70;3.08;;;12.50;99.90;;;;;;5059670;28;20029;-69
2024/04/05 00:40:55;;;;;;;23.95;3.20;;;12.50;99.90;;;;;;5048703;28;20028;-69
2024/04/05 00:43:22;;;;;;;32.67;4.10;;;12.40;99.90;;;;;;5064640;28;20028;-72
2024/04/05 00:45:49;;;;;;;31.92;4.18;;;12.40;99.90;;;;;;5064448;28;20032;-69
2024/04/05 00:48:16;;;;;;;17.27;2.47;;;12.40;99.90;;;;;;5070079;28;20043;-70
2024/04/05 00:50:43;;;;;;;18.85;2.83;;;12.40;99.90;;;;;;5062789;28;20490;-74
2024/04/05 00:53:15;;;;;;;19.98;2.75;;;12.30;99.90;;;;;;5068579;28;20029;-70
2024/04/05 00:55:42;;;;;;;25.55;3.15;;;12.30;99.90;;;;;;5060691;28;20587;-70
2024/04/05 00:58:09;;;;;;;12.73;3.28;;;12.40;99.90;;;;;;5067168;28;20051;-71
2024/04/05 01:00:35;;;;;;;20.42;2.97;;;12.30;99.90;;;;;;5065920;28;20036;-69
2024/04/05 01:03:01;;;;;;;17.60;3.15;;;12.30;99.90;;;;;;5075018;28;20028;-73
2024/04/05 01:05:27;;;;;;;17.77;3.00;;;12.20;99.90;;;;;;5077732;28;20032;-70
2024/04/05 01:07:53;;;;;;;32.50;4.20;;;12.20;99.90;;;;;;5070836;28;20021;-69
2024/04/05 01:10:22;;;;;;;18.85;2.75;;;12.20;99.90;;;;;;5071416;28;20468;-73
2024/04/05 01:12:58;;;;;;;14.57;2.30;;;12.20;99.90;;;;;;5068101;28;20124;-72
2024/04/05 01:15:23;;;;;;;20.75;3.17;;;12.10;99.90;;;;;;5075601;28;20036;-69
2024/04/05 01:17:50;;;;;;;27.80;4.20;;;12.10;99.90;;;;;;5067419;28;20094;-72
2024/04/05 01:20:18;;;;;;;22.08;3.45;;;12.10;99.90;;;;;;5068651;28;20030;-71
2024/04/05 01:22:51;;;;;;;;;;;12.20;99.90;;;;;;5065858;28;20788;-70
2024/04/05 01:25:16;;;;;;;19.45;3.28;;;12.10;99.90;;;;;;5067625;28;20023;-69
2024/04/05 01:27:45;;;;;;;17.83;3.38;;;12.10;99.90;;;;;;5058889;28;20472;-73
2024/04/05 01:30:11;;;;;;;17.83;3.25;;;12.00;99.90;;;;;;5062676;28;20101;-68
2024/04/05 01:32:36;;;;;;;18.48;3.38;;;12.00;99.90;;;;;;5070382;28;20435;-71
2024/04/05 01:35:02;;;;;;;17.88;3.15;;;12.00;99.90;;;;;;5068015;28;20025;-71
2024/04/05 01:37:28;;;;;;;16.98;3.38;;;11.90;99.90;;;;;;5067610;28;20540;-69
2024/04/05 01:39:53;;;;;;;18.60;2.28;;;12.00;99.90;;;;;;5069721;28;20036;-70
2024/04/05 01:42:19;;;;;;;14.15;2.97;;;12.00;99.90;;;;;;5075687;28;20040;-71
2024/04/05 01:44:45;;;;;;;19.30;3.17;;;11.90;99.90;;;;;;5062671;28;20056;-70
2024/04/05 01:47:10;;;;;;;20.58;3.47;;;11.80;99.90;;;;;;5067471;28;20476;-70
2024/04/05 01:49:36;;;;;;;19.23;3.60;;;11.90;99.90;;;;;;5067542;28;20020;-70
2024/04/05 01:52:02;;;;;;;15.45;2.90;;;11.80;99.90;;;;;;5065130;28;20036;-68
2024/04/05 01:54:28;;;;;;;24.85;3.78;;;11.80;99.90;;;;;;5065483;28;20174;-68
2024/04/05 01:56:54;;;;;;;27.08;4.15;;;11.80;99.90;;;;;;5064221;28;20652;-71
2024/04/05 01:59:19;;;;;;;27.35;3.70;;;11.80;99.90;;;;;;5064743;28;20044;-73
2024/04/05 02:01:45;;;;;;;20.95;3.20;;;11.80;99.90;;;;;;5068672;28;20032;-68
2024/04/05 02:04:10;;;;;;;25.27;3.67;;;11.80;99.90;;;;;;5065463;28;20043;-71
2024/04/05 02:06:39;;;;;;;15.45;2.88;;;11.80;99.90;;;;;;5067089;28;20469;-69
2024/04/05 02:09:05;;;;;;;21.20;2.72;;;11.70;99.90;;;;;;5069359;28;20033;-71
2024/04/05 02:11:31;;;;;;;28.30;3.15;;;11.70;99.90;;;;;;5065201;28;20120;-69
2024/04/05 02:13:56;;;;;;;32.83;3.90;;;11.70;99.90;;;;;;5046604;28;20016;-72
2024/04/05 02:16:22;;;;;;;26.02;3.22;;;11.70;99.90;;;;;;5064290;28;20036;-69
2024/04/05 02:18:47;;;;;;;19.05;3.00;;;11.70;99.90;;;;;;5071071;28;20522;-70
2024/04/05 02:21:13;;;;;;;26.73;4.47;;;11.70;99.90;;;;;;5068058;28;20029;-71
2024/04/05 02:23:38;;;;;;;24.20;3.83;;;11.70;99.90;;;;;;5073401;28;20516;-70
2024/04/05 02:26:04;;;;;;;16.83;3.05;;;11.70;99.90;;;;;;5067913;28;20423;-71
2024/04/05 02:28:29;;;;;;;17.40;2.55;;;11.70;99.90;;;;;;5073654;28;20024;-73
2024/04/05 02:30:55;;;;;;;16.77;3.05;;;11.70;99.90;;;;;;5063835;28;20047;-68
2024/04/05 02:33:20;;;;;;;17.58;2.85;;;11.70;99.90;;;;;;5068190;28;20036;-72
2024/04/05 02:35:46;;;;;;;24.27;3.03;;;11.70;99.90;;;;;;5060721;28;20044;-73
2024/04/05 02:38:12;;;;;;;19.25;2.95;;;11.70;99.90;;;;;;5060061;28;20083;-67
2024/04/05 02:40:37;;;;;;;15.70;2.45;;;11.70;99.90;;;;;;5066073;28;20063;-71
2024/04/05 02:43:03;;;;;;;24.40;3.60;;;11.70;99.90;;;;;;5068931;28;20029;-70
2024/04/05 02:45:29;;;;;;;25.80;4.13;;;11.70;99.90;;;;;;5068828;28;20039;-72
2024/04/05 02:47:55;;;;;;;25.05;3.90;;;11.70;99.90;;;;;;5064303;28;20110;-67
2024/04/05 02:50:21;;;;;;;23.08;2.92;;;11.70;99.90;;;;;;5071358;28;20642;-72
2024/04/05 02:52:46;;;;;;;15.40;3.67;;;11.70;99.90;;;;;;5068471;28;20025;-71
2024/04/05 02:55:12;;;;;;;21.35;3.00;;;11.70;99.90;;;;;;5061153;28;20039;-73
2024/04/05 02:57:37;;;;;;;16.25;2.83;;;11.80;99.90;;;;;;5057186;28;20087;-72
2024/04/05 03:00:03;;;;;;;18.58;2.55;;;11.80;99.90;;;;;;5063285;28;20044;-69
2024/04/05 03:02:29;;;;;;;25.80;2.90;;;11.80;99.90;;;;;;5075473;28;20036;-72
2024/04/05 03:04:54;;;;;;;22.50;2.85;;;11.80;99.90;;;;;;5074120;28;20477;-73
2024/04/05 03:07:20;;;;;;;21.27;3.30;;;11.90;99.90;;;;;;5061208;28;20039;-70
2024/04/05 03:09:45;;;;;;;22.88;2.75;;;11.80;99.90;;;;;;5076340;28;20058;-73
2024/04/05 03:12:11;;;;;;;18.27;3.20;;;11.80;99.90;;;;;;5073316;28;20475;-68
2024/04/05 03:14:36;;;;;;;21.80;3.00;;;11.80;99.90;;;;;;5070864;28;20063;-71
2024/04/05 03:17:03;;;;;;;15.93;3.20;;;11.80;99.90;;;;;;5071849;28;20028;-72
2024/04/05 03:19:28;;;;;;;25.70;3.53;;;11.90;99.90;;;;;;5063737;28;20040;-70
2024/04/05 03:21:54;;;;;;;19.17;2.60;;;11.90;99.90;;;;;;5073395;28;20040;-74
2024/04/05 03:24:20;;;;;;;23.70;3.40;;;11.90;99.90;;;;;;5077820;28;20040;-69
2024/04/05 03:26:45;;;;;;;28.60;3.83;;;11.80;99.90;;;;;;5069533;28;20520;-72
2024/04/05 03:29:11;;;;;;;18.17;3.88;;;11.90;99.90;;;;;;5064759;28;20077;-68
2024/04/05 03:31:37;;;;;;;21.48;3.20;;;11.90;99.90;;;;;;5063136;28;20027;-70
2024/04/05 03:34:03;;;;;;;22.83;2.78;;;11.90;99.90;;;;;;5069935;28;20090;-71
2024/04/05 03:36:28;;;;;;;24.05;3.22;;;11.90;99.90;;;;;;5071393;28;20723;-70
2024/04/05 03:38:59;;;;;;;13.30;2.33;;;11.90;99.90;;;;;;5068041;28;20127;-72
2024/04/05 03:41:25;;;;;;;18.52;3.70;;;11.90;99.90;;;;;;5070682;28;20112;-71
2024/04/05 03:43:50;;;;;;;18.02;3.10;;;12.00;99.90;;;;;;5067787;28;21352;-72
2024/04/05 03:46:16;;;;;;;25.40;3.05;;;11.90;99.90;;;;;;5066734;28;20440;-69
2024/04/05 03:48:42;;;;;;;22.45;3.20;;;12.00;99.90;;;;;;5066780;28;20040;-70
2024/04/05 03:51:08;;;;;;;21.20;3.28;;;12.00;99.90;;;;;;5065379;28;20029;-74
2024/04/05 03:53:33;;;;;;;30.80;4.72;;;12.00;99.90;;;;;;5069288;28;20185;-71
2024/04/05 03:55:59;;;;;;;19.55;2.80;;;12.00;99.90;;;;;;5070868;28;20029;-72
2024/04/05 03:58:24;;;;;;;16.70;3.08;;;12.10;99.90;;;;;;5074561;28;20425;-76
2024/04/05 04:00:51;;;;;;;20.77;3.20;;;12.10;99.90;;;;;;5064549;28;20154;-72
2024/04/05 04:03:17;;;;;;;23.25;3.33;;;12.10;99.90;;;;;;5055190;28;20131;-72
2024/04/05 04:05:46;;;;;;;17.25;2.65;;;12.10;99.90;;;;;;5058682;28;20561;-69
2024/04/05 04:08:11;;;;;;;17.80;3.10;;;12.20;99.90;;;;;;5072943;28;20111;-70
2024/04/05 04:10:39;;;;;;;27.10;2.90;;;12.10;99.90;;;;;;5064761;28;20397;-70
2024/04/05 04:13:04;;;;;;;24.70;2.90;;;12.10;99.90;;;;;;5058834;28;20642;-72
2024/04/05 04:15:30;;;;;;;17.20;2.95;;;12.20;99.90;;;;;;5063428;28;20049;-70
2024/04/05 04:17:56;;;;;;;27.35;3.38;;;12.20;99.90;;;;;;5068122;28;20438;-70
2024/04/05 04:20:21;;;;;;;15.65;2.63;;;12.20;99.90;;;;;;5067763;28;20132;-72
2024/04/05 04:22:47;;;;;;;25.23;3.30;;;12.20;99.90;;;;;;5066119;28;20024;-74
2024/04/05 04:25:12;;;;;;;14.30;2.70;;;12.20;99.90;;;;;;5067796;28;20483;-73
2024/04/05 04:27:38;;;;;;;11.20;2.55;;;12.20;99.90;;;;;;5074027;28;20054;-71
2024/04/05 04:30:05;;;;;;;19.40;2.72;;;12.20;99.90;;;;;;5063231;28;20082;-70
2024/04/05 04:32:33;;;;;;;17.98;3.38;;;12.20;99.90;;;;;;5069506;28;20091;-69
2024/04/05 04:34:59;;;;;;;24.17;3.63;;;12.20;99.90;;;;;;5062753;28;20042;-73
2024/04/05 04:37:25;;;;;;;24.38;3.55;;;12.20;99.90;;;;;;5064053;28;20126;-70
2024/04/05 04:39:50;;;;;;;20.75;3.97;;;12.20;99.90;;;;;;5062186;28;20475;-70
2024/04/05 04:42:17;;;;;;;17.85;3.47;;;12.20;99.90;;;;;;5063048;28;20063;-70
2024/04/05 04:44:43;;;;;;;22.95;3.67;;;12.20;99.90;;;;;;5072003;28;20465;-73
2024/04/05 04:47:08;;;;;;;15.93;2.40;;;12.20;99.90;;;;;;5064655;28;20017;-68
2024/04/05 04:49:35;;;;;;;22.17;3.50;;;12.30;99.90;;;;;;5062581;28;20035;-66
2024/04/05 04:52:00;;;;;;;13.77;2.50;;;12.20;99.90;;;;;;5066066;28;20040;-67
2024/04/05 04:54:27;;;;;;;18.90;2.30;;;12.20;99.90;;;;;;5063453;28;20583;-66
2024/04/05 04:56:53;;;;;;;20.25;2.63;;;12.20;99.90;;;;;;5065368;28;20042;-67
2024/04/05 04:59:19;;;;;;;15.05;2.60;;;12.20;99.90;;;;;;5057566;28;20032;-66
2024/04/05 05:01:44;;;;;;;18.73;3.20;;;12.20;99.90;;;;;;5065529;28;20024;-66
2024/04/05 05:04:12;;;;;;;21.10;3.40;;;12.20;99.90;;;;;;5065427;28;20024;-68
2024/04/05 05:06:40;;;;;;;17.73;2.70;;;12.20;99.90;;;;;;5065095;28;20103;-67
2024/04/05 05:09:06;;;;;;;19.67;3.35;;;12.20;99.90;;;;;;5067701;28;20039;-67
2024/04/05 05:11:32;;;;;;;19.63;2.67;;;12.20;99.90;;;;;;5055150;28;20031;-67
2024/04/05 05:13:58;;;;;;;14.02;2.65;;;12.20;99.90;;;;;;5058395;28;20119;-67
2024/04/05 05:16:24;;;;;;;20.25;3.55;;;12.20;99.90;;;;;;5063863;28;20123;-68
2024/04/05 05:18:50;;;;;;;19.27;2.67;;;12.20;99.90;;;;;;5061431;28;20574;-67
2024/04/05 05:21:16;;;;;;;18.13;3.40;;;12.20;99.90;;;;;;5062401;28;20044;-66
2024/04/05 05:23:41;;;;;;;28.65;3.25;;;12.20;99.90;;;;;;5060574;28;20044;-67
2024/04/05 05:26:07;;;;;;;21.83;3.30;;;12.20;99.90;;;;;;5064171;28;20030;-68
2024/04/05 05:28:33;;;;;;;24.20;2.92;;;12.20;99.90;;;;;;5068630;28;20050;-66
2024/04/05 05:30:58;;;;;;;30.92;3.63;;;12.20;99.90;;;;;;5064772;28;20032;-67
2024/04/05 05:33:24;;;;;;;14.45;2.38;;;12.20;99.90;;;;;;5061960;28;20033;-67
2024/04/05 05:35:50;;;;;;;10.82;2.22;;;12.30;99.90;;;;;;5068877;28;20107;-67
2024/04/05 05:38:15;;;;;;;21.98;3.10;;;12.30;99.90;;;;;;5067052;28;20025;-66
2024/04/05 05:40:41;;;;;;;13.90;2.65;;;12.30;99.90;;;;;;5065045;28;20587;-67
2024/04/05 05:43:07;;;;;;;12.77;2.30;;;12.30;99.90;;;;;;5062212;28;20459;-67
2024/04/05 05:45:32;;;;;;;22.60;3.08;;;12.30;99.90;;;;;;5062743;28;20497;-67
2024/04/05 05:47:58;;;;;;;19.08;2.97;;;12.30;99.90;;;;;;5072924;28;20051;-67
2024/04/05 05:50:25;;;;;;;26.15;2.67;;;12.40;99.90;;;;;;5077003;28;20024;-69
2024/04/05 05:52:51;;;;;;;9.98;1.98;;;12.40;99.90;;;;;;5071820;28;20027;-66
2024/04/05 05:55:17;;;;;;;22.15;3.28;;;12.40;99.90;;;;;;5072558;28;20041;-67
2024/04/05 05:57:44;;;;;;;18.52;3.03;;;12.40;99.90;;;;;;5071297;28;20505;-67
2024/04/05 06:00:10;;;;;;;13.65;2.03;;;12.40;99.90;;;;;;5073461;28;20061;-68
2024/04/05 06:02:40;;;;;;;10.25;1.88;;;12.50;99.90;;;;;;5065794;28;20071;-67
2024/04/05 06:05:08;;;;;;;19.73;2.13;;;12.50;99.90;;;;;;5073363;28;20025;-67
2024/04/05 06:07:34;;;;;;;14.73;2.15;;;12.60;99.90;;;;;;5065632;28;20122;-67
2024/04/05 06:09:59;;;;;;;11.68;2.20;;;12.60;99.90;;;;;;5062986;28;20068;-68
2024/04/05 06:12:26;;;;;;;13.85;2.60;;;12.60;99.90;;;;;;5056762;28;20535;-67
2024/04/05 06:14:56;;;;;;;19.88;3.05;;;12.70;99.90;;;;;;5056965;28;20035;-68
2024/04/05 06:17:24;;;;;;;17.80;2.72;;;12.70;99.90;;;;;;5063285;28;20063;-66
2024/04/05 06:19:56;;;;;;;15.77;3.00;;;12.70;99.90;;;;;;5069455;28;20032;-68
2024/04/05 06:22:23;;;;;;;15.48;2.45;;;12.80;99.90;;;;;;5069210;28;20048;-67
2024/04/05 06:24:50;;;;;;;22.33;3.05;;;12.80;99.90;;;;;;5065703;28;20343;-66
2024/04/05 06:27:16;;;;;;;15.25;2.85;;;12.80;99.90;;;;;;5064703;28;20505;-68
2024/04/05 06:29:42;;;;;;;16.15;2.45;;;12.90;99.90;;;;;;5059464;28;20082;-68
2024/04/05 06:32:07;;;;;;;23.05;2.70;;;12.90;99.90;;;;;;5076746;28;20031;-67
2024/04/05 06:34:38;;;;;;;14.35;2.40;;;13.00;99.90;;;;;;5066986;28;20024;-66
2024/04/05 06:37:04;;;;;;;22.08;2.10;;;13.00;99.90;;;;;;5057509;28;20145;-67
2024/04/05 06:39:29;;;;;;;14.65;2.28;;;13.10;99.90;;;;;;5061251;28;20734;-66
2024/04/05 06:41:55;;;;;;;11.52;2.25;;;13.10;99.90;;;;;;5069430;28;20043;-68
2024/04/05 06:44:21;;;;;;;15.10;2.00;;;13.20;99.90;;;;;;5062533;28;20033;-66
2024/04/05 06:46:46;;;;;;;16.77;2.90;;;13.30;99.90;;;;;;5068992;28;20159;-69
2024/04/05 06:49:14;;;;;;;9.77;2.10;;;13.30;99.90;;;;;;5064569;28;20037;-68
2024/04/05 06:51:40;;;;;;;17.73;3.17;;;13.30;99.90;;;;;;5061087;28;20044;-71
2024/04/05 06:54:05;;;;;;;17.10;2.30;;;13.40;99.90;;;;;;5070351;28;20044;-67
2024/04/05 06:56:31;;;;;;;12.05;2.45;;;13.50;99.90;;;;;;5063782;28;20067;-67
2024/04/05 06:58:56;;;;;;;10.27;1.98;;;13.50;99.90;;;;;;5065857;28;20029;-68
2024/04/05 07:01:22;;;;;;;14.77;2.63;;;13.50;99.90;;;;;;5072490;28;20028;-69
2024/04/05 07:03:48;;;;;;;19.73;2.42;;;13.60;99.90;;;;;;5061006;28;20033;-67
2024/04/05 07:06:13;;;;;;;12.48;2.53;;;13.60;99.90;;;;;;5070309;28;20086;-70
2024/04/05 07:08:39;;;;;;;14.50;2.72;;;13.60;99.90;;;;;;5067644;28;20646;-69
2024/04/05 07:11:06;;;;;;;14.40;2.45;;;13.70;99.90;;;;;;5065962;28;20033;-69
2024/04/05 07:13:32;;;;;;;14.60;2.50;;;13.70;99.90;;;;;;5068673;28;20028;-70
2024/04/05 07:16:00;;;;;;;14.80;2.60;;;13.70;99.90;;;;;;5062054;28;20064;-69
2024/04/05 07:18:26;;;;;;;15.55;2.72;;;13.80;99.90;;;;;;5071974;28;20068;-67
2024/04/05 07:20:54;;;;;;;13.50;2.30;;;13.90;99.90;;;;;;5063208;28;20090;-67
2024/04/05 07:23:19;;;;;;;12.57;2.20;;;13.90;99.90;;;;;;5069154;28;20523;-70
2024/04/05 07:25:45;;;;;;;8.45;2.50;;;13.90;99.90;;;;;;5061067;28;20032;-69
2024/04/05 07:28:11;;;;;;;13.05;2.70;;;14.00;99.90;;;;;;5062574;28;20040;-69
2024/04/05 07:30:37;;;;;;;12.57;2.25;;;14.00;99.90;;;;;;5065523;28;20037;-69
2024/04/05 07:33:04;;;;;;;15.13;2.80;;;14.00;99.90;;;;;;5057117;28;20079;-68
2024/04/05 07:35:30;;;;;;;21.10;2.70;;;14.00;99.90;;;;;;5063933;28;20054;-69
2024/04/05 07:37:56;;;;;;;16.40;2.45;;;14.00;99.90;;;;;;5060497;28;20793;-68
2024/04/05 07:40:26;;;;;;;10.05;2.30;;;14.10;99.90;;;;;;5053322;28;20040;-69
2024/04/05 07:42:53;;;;;;;11.70;2.40;;;14.10;99.90;;;;;;5064344;28;20037;-67
2024/04/05 07:45:21;;;;;;;14.82;2.40;;;14.20;99.90;;;;;;5065680;28;20547;-68
2024/04/05 07:47:48;;;;;;;10.07;2.20;;;14.20;99.90;;;;;;5065744;28;20067;-68
2024/04/05 07:50:17;;;;;;;14.20;2.58;;;14.30;99.90;;;;;;5063604;28;20072;-69
2024/04/05 07:52:43;;;;;;;10.10;1.88;;;14.30;99.90;;;;;;5059617;28;20033;-66
2024/04/05 07:55:09;;;;;;;14.85;2.67;;;14.30;99.90;;;;;;5066631;28;20049;-68
2024/04/05 07:57:38;;;;;;;24.15;3.22;;;14.30;99.90;;;;;;5064835;28;20442;-68
2024/04/05 08:00:13;;;;;;;17.30;2.58;;;14.40;99.90;;;;;;5061518;28;20052;-68
2024/04/05 08:02:39;;;;;;;10.32;1.80;;;14.40;99.90;;;;;;5058310;28;20032;-68
2024/04/05 08:05:06;;;;;;;12.93;2.40;;;14.30;99.90;;;;;;5062389;28;20026;-67
2024/04/05 08:07:31;;;;;;;12.55;2.30;;;14.30;99.90;;;;;;5062031;28;20039;-66
2024/04/05 08:09:57;;;;;;;17.85;2.60;;;14.30;99.90;;;;;;5063167;28;20051;-66
2024/04/05 08:12:23;;;;;;;14.63;2.55;;;14.30;99.90;;;;;;5059101;28;20516;-65
2024/04/05 08:14:51;;;;;;;12.30;2.60;;;14.30;99.90;;;;;;5065760;28;20081;-65
2024/04/05 08:17:16;;;;;;;11.07;2.00;;;14.40;99.90;;;;;;5063624;28;20029;-65
2024/04/05 08:19:45;;;;;;;17.55;2.50;;;14.50;99.90;;;;;;5068923;28;20048;-65
2024/04/05 08:22:11;;;;;;;11.95;2.40;;;14.70;99.90;;;;;;5064244;28;20036;-68
2024/04/05 08:24:36;;;;;;;16.75;2.38;;;14.60;99.90;;;;;;5065768;28;20531;-66
2024/04/05 08:27:02;;;;;;;13.15;2.75;;;14.70;99.90;;;;;;5059546;28;20091;-66
2024/04/05 08:29:28;;;;;;;5.88;1.83;;;14.70;99.90;;;;;;5063302;28;20045;-65
2024/04/05 08:31:54;;;;;;;11.20;2.13;;;14.80;99.90;;;;;;5059917;28;20347;-65
2024/04/05 08:34:20;;;;;;;11.27;2.40;;;14.80;99.90;;;;;;5073754;28;20135;-67
2024/04/05 08:36:49;;;;;;;10.48;1.88;;;14.90;99.90;;;;;;5059523;28;20055;-70
2024/04/05 08:39:18;;;;;;;8.48;1.90;;;14.90;99.90;;;;;;5064428;28;20135;-65
2024/04/05 08:41:48;;;;;;;12.45;2.70;;;15.00;99.90;;;;;;5056624;28;20036;-68
2024/04/05 08:44:14;;;;;;;10.02;2.28;;;15.10;99.90;;;;;;5055414;28;20032;-65
2024/04/05 08:46:41;;;;;;;13.10;1.95;;;15.20;99.90;;;;;;5059534;28;20020;-66
2024/04/05 08:49:07;;;;;;;8.65;1.77;;;15.10;99.90;;;;;;5055371;28;20070;-64
2024/04/05 08:51:39;;;;;;;9.75;1.58;;;15.20;99.90;;;;;;5056372;28;20571;-66
2024/04/05 08:54:05;;;;;;;12.35;2.05;;;15.20;99.90;;;;;;5061468;28;20054;-68
2024/04/05 08:56:30;;;;;;;12.60;2.03;;;15.30;99.90;;;;;;5064310;28;20508;-66
2024/04/05 08:58:59;;;;;;;11.70;2.20;;;15.40;99.90;;;;;;5061284;28;20028;-64
2024/04/05 09:01:25;;;;;;;11.15;2.60;;;15.50;99.90;;;;;;5066250;28;20041;-66
2024/04/05 09:03:51;;;;;;;9.77;1.77;;;15.60;99.90;;;;;;5043194;28;20043;-67
2024/04/05 09:06:17;;;;;;;9.55;2.13;;;15.60;99.90;;;;;;5065306;28;20033;-69
2024/04/05 09:08:49;;;;;;;10.20;1.90;;;15.70;99.90;;;;;;5062504;28;20674;-68
2024/04/05 09:11:20;;;;;;;5.97;1.98;;;15.80;99.90;;;;;;5066610;28;20032;-68
2024/04/05 09:13:55;;;;;;;10.88;2.42;;;15.80;99.90;;;;;;5059507;28;20032;-68
2024/04/05 09:16:25;;;;;;;9.80;2.35;;;15.90;99.90;;;;;;5078127;28;20081;-67
2024/04/05 09:18:51;;;;;;;12.02;2.00;;;16.10;99.90;;;;;;5063109;28;20098;-67
2024/04/05 09:21:18;;;;;;;11.38;2.55;;;16.20;99.90;;;;;;5062050;28;20541;-68
2024/04/05 09:23:49;;;;;;;8.50;2.08;;;16.20;99.90;;;;;;5060270;28;20525;-68
2024/04/05 09:26:19;;;;;;;7.53;1.98;;;16.30;99.90;;;;;;5043921;28;20170;-69
2024/04/05 09:28:46;;;;;;;9.88;2.25;;;16.30;99.90;;;;;;5040875;28;20030;-68
2024/04/05 09:31:18;;;;;;;8.93;2.10;;;16.40;99.90;;;;;;5045531;28;20112;-68
2024/04/05 09:33:44;;;;;;;11.15;1.90;;;16.50;99.90;;;;;;5047050;28;20029;-68
2024/04/05 09:36:13;;;;;;;12.25;2.00;;;16.50;99.90;;;;;;5054577;28;20041;-70
2024/04/05 09:38:40;;;;;;;14.63;2.35;;;16.50;99.90;;;;;;5065128;28;20029;-69
2024/04/05 09:41:07;;;;;;;10.45;1.80;;;16.50;99.90;;;;;;5061709;28;20041;-69
2024/04/05 09:43:35;;;;;;;8.50;1.80;;;16.50;99.90;;;;;;5042358;28;20765;-67
2024/04/05 09:46:04;;;;;;;;;;;16.60;99.90;;;;;;5058774;28;20078;-68
2024/04/05 09:48:32;;;;;;;8.35;1.50;;;16.60;99.90;;;;;;5054657;28;19923;-69
2024/04/05 09:51:03;;;;;;;9.55;1.63;;;16.50;99.90;;;;;;5051272;28;20175;-69
2024/04/05 09:53:32;;;;;;;5.53;1.30;;;16.60;99.90;;;;;;5046827;28;20135;-68
2024/04/05 09:56:02;;;;;;;9.27;1.58;;;16.60;99.90;;;;;;5063235;28;20115;-67
2024/04/05 09:58:28;;;;;;;5.05;1.58;;;16.60;99.90;;;;;;5065343;28;20090;-67
2024/04/05 10:00:54;;;;;;;9.98;1.40;;;16.50;99.90;;;;;;5048620;28;20037;-66
2024/04/05 10:03:20;;;;;;;13.30;1.90;;;16.50;99.90;;;;;;5053575;28;20124;-67
2024/04/05 10:05:46;;;;;;;10.77;2.17;;;16.50;99.90;;;;;;5048920;28;20124;-67
2024/04/05 10:08:16;;;;;;;7.40;1.25;;;16.50;99.90;;;;;;5066162;28;20055;-69
2024/04/05 10:10:42;;;;;;;6.13;1.40;;;16.50;99.90;;;;;;5045257;28;20614;-68
2024/04/05 10:13:17;;;;;;;14.10;1.85;;;16.50;99.90;;;;;;5060608;28;20024;-70
2024/04/05 10:15:58;;;;;;;6.75;1.52;;;16.50;99.90;;;;;;5055621;28;20489;-66
2024/04/05 10:18:34;;;;;;;7.25;1.42;;;16.50;99.90;;;;;;5054769;28;20078;-67
2024/04/05 10:21:04;;;;;;;12.35;2.10;;;16.50;99.90;;;;;;5066059;28;20460;-69
2024/04/05 10:23:34;;;;;;;7.25;1.38;;;16.50;99.90;;;;;;5065934;28;20033;-69
2024/04/05 10:26:00;;;;;;;9.50;1.63;;;16.50;99.90;;;;;;5065101;28;20078;-67
2024/04/05 10:28:27;;;;;;;6.40;1.15;;;16.50;99.90;;;;;;5062146;28;20188;-69
2024/04/05 10:30:53;;;;;;;7.65;1.38;;;16.40;99.90;;;;;;5062845;28;20033;-69
2024/04/05 10:33:20;;;;;;;12.10;1.63;;;16.50;99.90;;;;;;5068973;28;20043;-67
2024/04/05 10:35:49;;;;;;;6.55;1.85;;;16.50;99.90;;;;;;5059663;28;20559;-68
2024/04/05 10:38:18;;;;;;;8.75;1.55;;;16.50;99.90;;;;;;5057966;28;20106;-67
2024/04/05 10:40:44;;;;;;;6.20;1.33;;;16.30;99.90;;;;;;5066396;28;20091;-68
2024/04/05 10:43:12;;;;;;;5.40;1.30;;;16.40;99.90;;;;;;5065960;28;20040;-68
2024/04/05 10:45:38;;;;;;;4.33;1.60;;;16.40;99.90;;;;;;5063608;28;20501;-69
2024/04/05 10:48:04;;;;;;;4.57;1.27;;;16.40;99.90;;;;;;5061625;28;20091;-67
2024/04/05 10:50:35;;;;;;;8.00;1.45;;;16.30;99.90;;;;;;5064440;28;20193;-68
2024/04/05 10:53:00;;;;;;;12.77;2.58;;;16.40;99.90;;;;;;5060116;28;20031;-69
2024/04/05 10:55:26;;;;;;;9.82;1.60;;;16.40;99.90;;;;;;5066561;28;20056;-67
2024/04/05 10:57:52;;;;;;;5.25;1.65;;;16.50;99.90;;;;;;5060670;28;20045;-67
2024/04/05 11:00:19;;;;;;;8.48;2.15;;;16.50;99.90;;;;;;5044656;28;20576;-68
2024/04/05 11:02:44;;;;;;;6.13;1.40;;;16.60;99.90;;;;;;5062870;28;20154;-69
2024/04/05 11:05:13;;;;;;;7.13;1.40;;;16.60;99.90;;;;;;5063201;28;20112;-67
2024/04/05 11:07:44;;;;;;;8.23;1.50;;;16.60;99.90;;;;;;5064088;28;20036;-68
2024/04/05 11:10:21;;;;;;;8.10;1.50;;;16.70;99.90;;;;;;5065564;28;20507;-69
2024/04/05 11:12:48;;;;;;;6.80;1.70;;;16.80;99.90;;;;;;5061624;28;20054;-68
2024/04/05 11:15:17;;;;;;;7.13;1.83;;;16.80;99.90;;;;;;5062164;28;20094;-68
2024/04/05 11:17:43;;;;;;;8.25;1.88;;;16.90;99.90;;;;;;5067575;28;20031;-68
2024/04/05 11:20:11;;;;;;;5.68;1.60;;;16.90;99.90;;;;;;5067519;28;20032;-68
2024/04/05 11:22:37;;;;;;;6.60;1.55;;;16.90;99.90;;;;;;5062066;28;20586;-69
2024/04/05 11:25:04;;;;;;;7.97;1.55;;;17.00;99.90;;;;;;5062905;28;20461;-67
2024/04/05 11:27:30;;;;;;;5.18;1.40;;;17.00;99.90;;;;;;5059886;28;20035;-68
2024/04/05 11:29:56;;;;;;;3.58;1.00;;;17.00;99.90;;;;;;5062424;28;20119;-67
2024/04/05 11:32:29;;;;;;;6.78;1.55;;;17.10;99.90;;;;;;5065354;28;20036;-69
2024/04/05 11:34:56;;;;;;;3.35;1.13;;;17.20;99.90;;;;;;5065261;28;20116;-68
2024/04/05 11:37:23;;;;;;;7.17;1.43;;;17.20;99.90;;;;;;5042998;28;20024;-69
2024/04/05 11:39:48;;;;;;;6.63;2.50;;;17.20;99.90;;;;;;5046817;28;20044;-68
2024/04/05 11:42:14;;;;;;;8.20;1.50;;;17.30;99.90;;;;;;5048808;28;20041;-68
2024/04/05 11:44:40;;;;;;;4.10;1.40;;;17.30;99.90;;;;;;5038415;28;20068;-68
2024/04/05 11:47:06;;;;;;;7.07;1.42;;;17.40;99.90;;;;;;5048178;28;20025;-68
2024/04/05 11:49:31;;;;;;;5.95;1.42;;;17.40;99.90;;;;;;5052113;28;20489;-68
2024/04/05 11:51:58;;;;;;;9.55;1.90;;;17.40;99.90;;;;;;5046653;28;20041;-68
2024/04/05 11:54:24;;;;;;;7.23;1.50;;;17.40;99.90;;;;;;5048443;28;20444;-68
2024/04/05 11:56:49;;;;;;;7.00;1.25;;;17.40;99.90;;;;;;5047243;28;20181;-67
2024/04/05 11:59:15;;;;;;;5.45;1.55;;;17.40;99.90;;;;;;5041257;28;20040;-69
2024/04/05 12:01:40;;;;;;;4.28;1.58;;;17.40;99.90;;;;;;5044900;28;20104;-68
2024/04/05 12:04:07;;;;;;;8.15;1.48;;;17.50;99.90;;;;;;5049649;28;20083;-68
2024/04/05 12:06:34;;;;;;;9.52;1.90;;;17.50;99.90;;;;;;5042573;28;20032;-71
2024/04/05 12:09:03;;;;;;;5.60;1.10;;;17.50;99.90;;;;;;5040817;28;20037;-71
2024/04/05 12:11:30;;;;;;;6.35;1.27;;;17.50;99.90;;;;;;5048670;28;20046;-67
2024/04/05 12:13:56;;;;;;;9.20;1.67;;;17.50;99.90;;;;;;5036103;28;20055;-67
2024/04/05 12:16:21;;;;;;;6.82;1.80;;;17.50;99.90;;;;;;5040271;28;20111;-69
2024/04/05 12:18:47;;;;;;;7.93;1.88;;;17.60;99.90;;;;;;5038591;28;20168;-69
2024/04/05 12:21:13;;;;;;;4.75;1.25;;;17.60;99.90;;;;;;5038717;28;20048;-68
2024/04/05 12:23:38;;;;;;;7.15;1.23;;;17.60;99.90;;;;;;5052550;28;20493;-69
2024/04/05 12:26:07;;;;;;;5.25;1.17;;;17.60;99.90;;;;;;5044603;28;20045;-69
2024/04/05 12:28:32;;;;;;;9.32;1.77;;;17.60;99.90;;;;;;5044525;28;20042;-68
2024/04/05 12:31:00;;;;;;;6.82;1.50;;;17.60;99.90;;;;;;5037220;28;20038;-67
2024/04/05 12:33:26;;;;;;;2.72;1.10;;;17.60;99.90;;;;;;5039397;28;20561;-69
2024/04/05 12:36:02;;;;;;;5.93;1.30;;;17.60;99.90;;;;;;5042020;28;20037;-69
2024/04/05 12:38:29;;;;;;;7.15;1.60;;;17.70;99.90;;;;;;5041194;28;20617;-67